• Join FlightAware (Why Join?)
  • Login
  • US Flag 
11:56PM EST


 

Airport Tracker/Info


-or-


 

Live Flight TrackerFlight Track Log ✈ VP-BLX ✈ 16-Nov-2013 ✈ UUEE / SVO - KMIA

Flight Track Log - Related Links

Times and Time Zones

All times are in EST time to prevent confusion due to time zone crossing. See the VP-BLX flight status page for this flight to view local times or setup timezone preferences in your user account.

Time Position Orientation Groundspeed Altitude Reporting Facility
EST Latitude Longitude Course Direction KTS MPH feet Rate Location/Type
02:51AM 55.9730 37.4250 239° Southwest 120 138  Level FlightAware
02:52AM 55.9670 37.3870 254° West 170 196 1,500 2,460 Climbing FlightAware
02:52AM 55.9590 37.3330 255° West 174 200 2,800 1,560 Climbing FlightAware
02:53AM 55.9510 37.2760 256° West 220 253 3,400 1,260 Climbing FlightAware
02:53AM 55.9480 37.2320 263° West 238 274 4,100 2,220 Climbing FlightAware
02:54AM 55.9550 37.1680 281° West 244 281 5,500 2,580 Climbing FlightAware
02:55AM 55.9660 37.0710 281° West 252 290 7,600 2,580 Climbing FlightAware
02:55AM 55.9730 37.0150 283° West 256 295 8,800 2,460 Climbing FlightAware
02:55AM 55.9780 36.9730 282° West 257 296 9,600 1,920 Climbing FlightAware
02:56AM 55.9860 36.8990 281° West 278 320 10,600 1,200 Climbing FlightAware
02:57AM 56.0030 36.7570 282° West 335 386 11,500 1,380 Climbing FlightAware
02:58AM 56.0140 36.6600 282° West 346 398 12,800 2,340 Climbing FlightAware
02:59AM 56.0330 36.4900 281° West 349 402 15,300 2,040 Climbing FlightAware
02:59AM 56.0500 36.3350 281° West 370 426 16,700 1,800 Climbing FlightAware
03:00AM 56.0470 36.3620 101° East 352 405 17,900 2,100 Climbing FlightAware
03:01AM 56.0740 36.1240 282° West 377 434 19,200 1,680 Climbing FlightAware
03:02AM 56.0960 35.9210 281° West 396 456 20,800 1,560 Climbing FlightAware
03:02AM 56.1130 35.7560 281° West 401 461 22,300 1,800 Climbing FlightAware
03:03AM 56.1270 35.6230 281° West 399 459 23,600 1,560 Climbing FlightAware
03:04AM 56.1470 35.4290 281° West 409 471 24,900 1,260 Climbing FlightAware
03:05AM 56.1590 35.3120 280° West 415 478 25,600 1,320 Climbing FlightAware
03:05AM 56.1720 35.1920 281° West 417 480 26,500 1,260 Climbing FlightAware
03:06AM 56.1870 35.0520 281° West 420 483 27,200 1,020 Climbing FlightAware
03:07AM 56.1910 34.9260 273° West 443 510 27,800 720 Climbing FlightAware
03:07AM 56.1840 34.8210 263° West 453 521 28,000 120 Climbing FlightAware
03:08AM 56.1730 34.6680 263° West 450 518 28,000 720 Level FlightAware
03:08AM 56.1630 34.5200 263° West 448 516 29,000 1,140 Climbing FlightAware
03:09AM 56.1500 34.3750 261° West 457 526 29,600 780 Climbing FlightAware
03:10AM 56.1330 34.2230 259° West 465 535 30,100 600 Climbing FlightAware
03:10AM 56.1220 34.0970 261° West 455 524 30,400 480 Climbing FlightAware
03:11AM 56.1230 34.0380 272° West 445 512 30,500 660 Climbing FlightAware
03:11AM 56.1380 33.8700 279° West 423 487 31,100 840 Climbing FlightAware
03:12AM 56.1580 33.7450 286° West 422 486 31,800 1,320 Climbing FlightAware
03:13AM 56.1760 33.6310 286° West 413 475 32,700 1,380 Climbing FlightAware
03:13AM 56.1930 33.5270 286° West 409 471 33,300 780 Climbing FlightAware
03:14AM 56.2260 33.3190 286° West 412 474 34,000 420 Climbing FlightAware
03:15AM 56.2440 33.2000 285° West 414 476 34,000  Level FlightAware
03:16AM 56.2690 33.0370 286° West 413 475 34,000  Level FlightAware
03:16AM 56.2830 32.9500 286° West 413 475 34,000  Level FlightAware
03:17AM 56.3010 32.8280 285° West 413 475 34,000  Level FlightAware
03:17AM 56.3190 32.7080 285° West 412 474 34,000  Level FlightAware
03:18AM 56.3490 32.5110 285° West 412 474 34,000  Level FlightAware
03:19AM 56.3670 32.3890 285° West 414 476 34,000  Level FlightAware
03:20AM 56.3950 32.2010 285° West 415 478 34,000  Level FlightAware
03:20AM 56.4110 32.0860 284° West 416 479 34,000  Level FlightAware
03:21AM 56.4240 31.9980 285° West 416 479 34,000  Level FlightAware
03:21AM 56.4400 31.8850 284° West 416 479 34,000  Level FlightAware
03:22AM 56.4600 31.7470 285° West 417 480 34,000  Level FlightAware
03:23AM 56.4810 31.6000 285° West 417 480 34,000  Level FlightAware
03:24AM 56.5090 31.3980 284° West 419 482 34,000  Level FlightAware
03:24AM 56.5280 31.2590 284° West 418 481 34,000  Level FlightAware
03:25AM 56.5280 31.2590 284° West 400 460 34,000  Level FlightAware
03:26AM 56.5910 31.0000 294° West 389 448 34,000  Level FlightAware
03:27AM 56.6720 30.8170 309° West 379 436 34,000  Level FlightAware
03:28AM 56.7180 30.7190 311° West 382 440 34,000  Level FlightAware
03:29AM 56.7780 30.5600 305° West 386 444 34,000  Level FlightAware
03:29AM 56.8060 30.4840 304° West 384 442 34,000  Level FlightAware
03:30AM 56.8400 30.3920 304° West 384 442 34,000  Level FlightAware
03:31AM 56.8830 30.2770 304° West 383 441 34,000  Level FlightAware
03:31AM 56.9020 30.2250 304° West 384 442 34,000  Level FlightAware
03:31AM 56.9300 30.1480 304° West 385 443 34,000  Level FlightAware
03:32AM 56.9930 29.9750 304° West 386 444 34,000  Level FlightAware
03:33AM 57.0290 29.8760 304° West 386 444 34,000  Level FlightAware
03:34AM 57.0670 29.7710 304° West 384 442 34,000  Level FlightAware
03:34AM 57.1000 29.6790 303° West 383 441 34,000  Level FlightAware
03:35AM 57.1560 29.5210 303° West 381 438 34,000  Level FlightAware
03:36AM 57.1780 29.4610 304° West 381 438 34,000  Level FlightAware
03:37AM 57.2410 29.2830 303° West 382 440 34,000  Level FlightAware
03:38AM 57.3030 29.1060 303° West 383 441 34,000  Level FlightAware
03:38AM 57.3360 29.0110 303° West 385 443 34,000  Level FlightAware
03:39AM 57.3690 28.9190 304° West 386 444 34,000  Level FlightAware
03:40AM 57.4140 28.7880 303° West 387 445 34,000  Level FlightAware
03:40AM 57.4520 28.6790 303° West 386 444 34,000  Level FlightAware
03:41AM 57.4770 28.6050 302° West 386 444 34,000  Level FlightAware
03:41AM 57.5100 28.5100 303° West 386 444 34,000  Level FlightAware
03:42AM 57.5430 28.4140 303° West 386 444 34,000  Level FlightAware
03:42AM 57.5740 28.3230 302° West 385 443 34,000  Level FlightAware
03:44AM 57.6410 28.1250 302° West 387 445 34,000  Level FlightAware
03:44AM 57.6930 27.9690 302° West 385 443 34,000  Level FlightAware
03:46AM 57.7530 27.7890 302° West 388 447 34,000  Level FlightAware
03:47AM 57.8180 27.5920 302° West 391 450 34,000  Level FlightAware
03:47AM 57.8500 27.4640 295° West 404 465 34,000  Level FlightAware
03:48AM 57.8730 27.3500 291° West 404 465 34,000  Level FlightAware
03:48AM 57.8960 27.2380 291° West 405 466 34,000  Level FlightAware
03:49AM 57.9250 27.0920 291° West 404 465 34,000  Level FlightAware
03:50AM 57.9500 26.9710 291° West 403 464 34,000  Level FlightAware
03:51AM 57.9790 26.8230 290° West 403 464 34,000  Level FlightAware
03:51AM 58.0050 26.6930 291° West 402 463 34,000  Level FlightAware
03:52AM 58.0200 26.6160 290° West 401 461 34,000  Level FlightAware
03:52AM 58.0440 26.4910 290° West 401 461 34,000  Level FlightAware
03:53AM 58.0840 26.2860 290° West 399 459 34,000  Level FlightAware
03:54AM 58.1270 26.0640 290° West 399 459 34,000  Level FlightAware
03:55AM 58.1640 25.8640 289° West 399 459 34,000  Level FlightAware
03:56AM 58.1820 25.7700 290° West 402 463 34,000  Level FlightAware
03:57AM 58.2260 25.5340 290° West 402 463 34,000  Level FlightAware
03:58AM 58.2710 25.2910 289° West 402 463 34,000  Level FlightAware
03:59AM 58.2880 25.1960 289° West 401 461 34,000  Level FlightAware
03:59AM 58.3110 25.0730 290° West 400 460 34,000  Level FlightAware
04:00AM 58.3340 24.9440 289° West 400 460 34,000  Level FlightAware
04:01AM 58.3590 24.8050 289° West 399 459 34,000  Level FlightAware
04:02AM 58.3920 24.6180 289° West 398 458 34,000  Level FlightAware
04:02AM 58.4110 24.5130 289° West 399 459 34,000  Level FlightAware
04:03AM 58.4330 24.3780 287° West 402 463 34,000  Level FlightAware
04:04AM 58.4530 24.2440 286° West 403 464 34,000  Level FlightAware
04:04AM 58.4670 24.1460 285° West 402 463 34,000  Level FlightAware
04:05AM 58.4840 24.0360 287° West 402 463 34,000  Level FlightAware
04:05AM 58.5030 23.9080 286° West 402 463 34,000  Level FlightAware
04:06AM 58.5210 23.7860 286° West 403 464 34,000  Level FlightAware
04:06AM 58.5330 23.7040 286° West 402 463 34,000  Level FlightAware
04:07AM 58.5520 23.5770 286° West 402 463 34,000  Level FlightAware
04:08AM 58.5790 23.3860 285° West 404 465 34,000  Level FlightAware
04:08AM 58.5960 23.2730 286° West 405 466 34,000  Level FlightAware
04:09AM 58.6120 23.1600 285° West 406 467 34,000  Level FlightAware
04:09AM 58.6250 23.0630 284° West 406 467 34,000  Level FlightAware
04:10AM 58.6420 22.9430 285° West 408 470 34,000  Level FlightAware
04:11AM 58.6600 22.8130 285° West 407 468 34,000  Level FlightAware
04:11AM 58.6780 22.6860 285° West 408 470 34,000  Level FlightAware
04:12AM 58.7050 22.4860 285° West 408 470 34,000  Level FlightAware
04:13AM 58.7190 22.3850 285° West 407 468 34,000  Level FlightAware
04:14AM 58.7470 22.1740 284° West 405 466 34,000  Level FlightAware
04:14AM 58.7600 22.0780 285° West 404 465 34,000  Level FlightAware
04:15AM 58.7760 21.9600 285° West 404 465 34,000  Level FlightAware
04:16AM 58.8020 21.7570 284° West 404 465 34,000  Level FlightAware
04:16AM 58.8170 21.6450 285° West 403 464 34,000  Level FlightAware
04:17AM 58.8420 21.4480 284° West 404 465 34,000  Level FlightAware
04:18AM 58.8570 21.3280 284° West 404 465 34,000  Level FlightAware
04:18AM 58.8710 21.2230 285° West 402 463 34,000  Level FlightAware
04:19AM 58.8950 21.0890 289° West 400 460 34,000  Level FlightAware
04:19AM 58.9170 20.9650 289° West 399 459 34,000  Level FlightAware
04:20AM 58.9370 20.8430 288° West 399 459 34,000  Level FlightAware
04:21AM 58.9570 20.7230 288° West 399 459 34,000  Level FlightAware
04:21AM 58.9750 20.6130 288° West 398 458 34,000  Level FlightAware
04:22AM 59.0070 20.4160 288° West 396 456 34,000  Level FlightAware
04:23AM 59.0240 20.3080 287° West 396 456 34,000  Level FlightAware
04:23AM 59.0450 20.1740 287° West 398 458 34,000  Level FlightAware
04:24AM 59.0670 20.0360 287° West 400 460 34,000  Level FlightAware
04:24AM 59.0840 19.9270 287° West 401 461 34,000  Level FlightAware
04:25AM 59.1000 19.8290 288° West 402 463 34,000  Level FlightAware
04:26AM 59.1320 19.6160 286° West 402 463 34,000  Level FlightAware
04:26AM 59.1480 19.5130 287° West 403 464 34,000  Level FlightAware
04:27AM 59.1650 19.4010 287° West 404 465 34,000  Level FlightAware
04:28AM 59.2000 19.1690 287° West 404 465 34,000  Level FlightAware
04:29AM 59.2290 18.9780 287° West 403 464 34,000  Level FlightAware
04:30AM 59.2610 18.7580 286° West 402 463 34,000  Level FlightAware
04:31AM 59.2770 18.6450 286° West 403 464 34,000  Level FlightAware
04:31AM 59.2900 18.5550 286° West 404 465 34,000  Level FlightAware
04:32AM 59.3060 18.4470 286° West 404 465 34,000  Level FlightAware
04:32AM 59.3260 18.3040 285° West 403 464 34,000  Level FlightAware
04:33AM 59.3520 18.1190 285° West 403 464 34,000  Level FlightAware
04:34AM 59.3680 18.0080 286° West 403 464 34,000  Level FlightAware
04:34AM 59.3910 17.8410 285° West 403 464 34,000  Level FlightAware
04:35AM 59.4060 17.7310 285° West 403 464 34,000  Level FlightAware
04:36AM 59.4220 17.6170 285° West 402 463 34,000  Level FlightAware
04:36AM 59.4470 17.4330 285° West 402 463 34,000 420 Level FlightAware
04:37AM 59.4770 17.2060 285° West 397 457 34,900 900 Climbing FlightAware
04:38AM 59.4930 17.0810 284° West 392 451 35,600 600 Climbing FlightAware
04:39AM 59.5220 16.8580 284° West 394 453 36,000 180 Climbing FlightAware
04:40AM 59.5500 16.6460 285° West 391 450 36,000  Level FlightAware
04:41AM 59.5650 16.5270 284° West 391 450 36,000  Level FlightAware
04:41AM 59.5790 16.4160 284° West 389 448 36,000  Level FlightAware
04:42AM 59.5950 16.2880 284° West 389 448 36,000  Level FlightAware
04:43AM 59.6230 16.0610 284° West 391 450 36,000  Level FlightAware
04:44AM 59.6370 15.9470 284° West 392 451 36,000  Level FlightAware
04:44AM 59.6510 15.8290 283° West 392 451 36,000  Level FlightAware
04:45AM 59.6650 15.7080 283° West 392 451 36,000  Level FlightAware
04:45AM 59.6760 15.6200 284° West 392 451 36,000  Level FlightAware
04:46AM 59.6960 15.4460 283° West 394 453 36,000  Level FlightAware
04:46AM 59.7060 15.3620 283° West 395 455 36,000  Level FlightAware
04:47AM 59.7200 15.2410 283° West 395 455 36,000  Level FlightAware
04:48AM 59.7350 15.1090 283° West 395 455 36,000  Level FlightAware
04:48AM 59.7500 14.9810 283° West 397 457 36,000  Level FlightAware
04:49AM 59.7750 14.7560 283° West 397 457 36,000  Level FlightAware
04:50AM 59.7920 14.6010 282° West 398 458 36,000  Level FlightAware
04:51AM 59.8070 14.4640 282° West 400 460 36,000  Level FlightAware
04:51AM 59.8200 14.3470 283° West 399 459 36,000  Level FlightAware
04:52AM 59.8420 14.1380 282° West 398 458 36,000  Level FlightAware
04:53AM 59.8560 14.0110 282° West 398 458 36,000  Level FlightAware
04:53AM 59.8740 13.8370 282° West 398 458 36,000  Level FlightAware
04:54AM 59.8850 13.7360 282° West 399 459 36,000  Level FlightAware
04:55AM 59.9090 13.4920 281° West 399 459 36,000  Level FlightAware
04:56AM 59.9210 13.3760 282° West 399 459 36,000  Level FlightAware
04:56AM 59.9400 13.2060 283° West 398 458 36,000  Level FlightAware
04:57AM 59.9580 13.0890 287° West 396 456 36,000  Level FlightAware
04:57AM 59.9750 12.9780 287° West 396 456 36,000  Level FlightAware
04:58AM 59.9950 12.8420 286° West 394 453 36,000  Level FlightAware
04:59AM 60.0160 12.7000 287° West 391 450 36,000  Level FlightAware
04:59AM 60.0360 12.5630 286° West 393 452 36,000  Level FlightAware
05:00AM 60.0580 12.4130 286° West 397 457 36,000  Level FlightAware
05:01AM 60.0750 12.2910 286° West 398 458 36,000  Level FlightAware
05:01AM 60.0920 12.1750 286° West 396 456 36,000  Level FlightAware
05:02AM 60.1180 11.9940 286° West 393 452 36,000  Level FlightAware
05:03AM 60.1320 11.8940 286° West 392 451 36,000  Level FlightAware
05:03AM 60.1490 11.7680 285° West 395 455 36,000  Level FlightAware
05:04AM 60.1790 11.5500 286° West 397 457 36,000  Level FlightAware
05:05AM 60.1930 11.4500 286° West 397 457 36,000  Level FlightAware
05:05AM 60.2080 11.3370 285° West 394 453 36,000  Level FlightAware
05:06AM 60.2270 11.2000 286° West 389 448 36,000  Level FlightAware
05:07AM 60.2530 11.0070 285° West 383 441 36,000  Level FlightAware
05:07AM 60.2680 10.8860 284° West 381 438 36,000  Level FlightAware
05:08AM 60.2810 10.7880 285° West 382 440 36,000  Level FlightAware
05:09AM 60.3010 10.6380 285° West 387 445 36,000  Level FlightAware
05:09AM 60.3190 10.4960 284° West 392 451 36,000  Level FlightAware
05:10AM 60.3340 10.3780 284° West 389 448 36,000  Level FlightAware
05:10AM 60.3490 10.2570 284° West 386 444 36,000  Level FlightAware
05:12AM 60.3800 10.0120 284° West 383 441 36,000  Level FlightAware
05:12AM 60.3950 9.8920 284° West 382 440 36,000  Level FlightAware
05:13AM 60.4140 9.7370 284° West 392 451 36,000  Level FlightAware
05:14AM 60.4330 9.5730 283° West 402 463 36,000  Level FlightAware
05:15AM 60.4540 9.3960 284° West 399 459 36,000  Level FlightAware
05:15AM 60.4730 9.2410 284° West 398 458 36,000  Level FlightAware
05:16AM 60.4870 9.1160 283° West 399 459 36,000  Level FlightAware
05:17AM 60.5070 8.9460 284° West 399 459 36,000  Level FlightAware
05:17AM 60.5200 8.8330 283° West 398 458 36,000  Level FlightAware
05:18AM 60.5330 8.7150 283° West 399 459 36,000  Level FlightAware
05:18AM 60.5470 8.5940 283° West 400 460 36,000  Level FlightAware
05:19AM 60.5610 8.4680 283° West 401 461 36,000  Level FlightAware
05:19AM 60.5770 8.3170 282° West 400 460 36,000  Level FlightAware
05:21AM 60.6040 8.0690 283° West 396 456 36,000  Level FlightAware
05:22AM 60.6270 7.8600 283° West 391 450 36,000  Level FlightAware
05:22AM 60.6420 7.7110 282° West 393 452 36,000  Level FlightAware
05:23AM 60.6563 7.5765 282° West 394 453 36,000  Level FlightAware ADS-B (EGBP)
05:23AM 60.6674 7.4690 282° West 393 452 36,000  Level FlightAware ADS-B (EGBP)
05:24AM 60.6787 7.3590 282° West 393 452 36,000  Level FlightAware ADS-B (EGBP)
05:24AM 60.6894 7.2524 282° West 394 453 36,000  Level FlightAware ADS-B (EGBP)
05:25AM 60.7004 7.1434 282° West 393 452 36,000  Level FlightAware ADS-B (EGBP)
05:26AM 60.7145 7.0023 282° West 379 436 36,000  Level FlightAware ADS-B (EGBP)
05:26AM 60.7248 6.8976 281° West 374 430 36,000  Level FlightAware ADS-B (EGBP)
05:27AM 60.7351 6.7913 281° West 375 432 36,000  Level FlightAware ADS-B (EGBP)
05:27AM 60.7452 6.6871 281° West 378 435 36,000  Level FlightAware ADS-B (EGBP)
05:28AM 60.7579 6.5550 281° West 369 425 36,000  Level FlightAware ADS-B (EGBP)
05:28AM 60.7678 6.4500 281° West 372 428 36,000  Level FlightAware ADS-B (EGBP)
05:29AM 60.7775 6.3462 281° West 382 440 36,000  Level FlightAware ADS-B (EGBP)
05:29AM 60.7909 6.2017 281° West 393 452 36,000  Level FlightAware ADS-B (EGBP)
05:30AM 60.8034 6.0671 281° West 388 447 36,000  Level FlightAware ADS-B (EGBP)
05:31AM 60.8176 5.9107 281° West 386 444 36,000  Level FlightAware ADS-B (EGBP)
05:31AM 60.8272 5.8033 280° West 388 447 36,000  Level FlightAware ADS-B (EGBP)
05:32AM 60.8369 5.6943 280° West 386 444 36,000  Level FlightAware ADS-B (EGBP)
05:32AM 60.8470 5.5810 280° West 382 440 36,000  Level FlightAware
05:33AM 60.8600 5.4360 280° West 381 438 36,000  Level FlightAware
05:34AM 60.8720 5.2850 279° West 380 437 36,000  Level FlightAware
05:34AM 60.8850 5.1390 280° West 376 433 36,000  Level FlightAware
05:35AM 60.9020 4.9370 280° West 372 428 36,000  Level FlightAware
05:36AM 60.9110 4.8220 279° West 370 426 36,000  Level FlightAware
05:37AM 60.9230 4.6700 279° West 370 426 36,000  Level FlightAware
05:37AM 60.9330 4.5480 280° West 371 427 36,000  Level FlightAware
05:38AM 60.9440 4.4050 279° West 371 427 36,000  Level FlightAware
05:38AM 60.9540 4.2850 280° West 372 428 36,000  Level FlightAware
05:40AM 60.9730 4.0270 279° West 373 429 36,000  Level FlightAware
05:40AM 60.9830 3.8990 279° West 374 430 36,000  Level FlightAware
05:41AM 60.9940 3.7500 279° West 374 430 36,000  Level FlightAware
05:42AM 61.0110 3.5160 279° West 372 428 36,000  Level FlightAware
05:43AM 61.0270 3.2920 278° West 370 426 36,000  Level FlightAware
05:44AM 61.0380 3.1270 278° West 368 423 36,000  Level FlightAware
05:44AM 61.0460 3.0130 278° West 368 423 36,000  Level FlightAware
05:45AM 61.0550 2.8740 278° West 369 425 36,000  Level FlightAware
05:46AM 61.0620 2.7660 278° West 369 425 36,000  Level FlightAware
05:46AM 61.0700 2.6530 278° West 369 425 36,000  Level FlightAware
05:47AM 61.0770 2.5410 277° West 369 425 36,000  Level FlightAware
05:47AM 61.0860 2.3890 277° West 368 423 36,000  Level FlightAware
05:48AM 61.0950 2.2450 277° West 368 423 36,000  Level FlightAware
05:49AM 61.1000 2.1630 277° West 367 422 36,000  Level FlightAware
05:50AM 61.1140 1.9420 278° West 367 422 36,000  Level FlightAware
05:50AM 61.1200 1.8320 276° West 365 420 36,000  Level FlightAware
05:51AM 61.1290 1.6840 277° West 366 421 36,000  Level FlightAware
05:51AM 61.1360 1.5570 277° West 365 420 36,000  Level FlightAware
05:52AM 61.1430 1.4290 277° West 364 419 36,000  Level FlightAware
05:53AM 61.1500 1.2970 276° West 363 418 36,000  Level FlightAware
05:54AM 61.1590 1.1300 276° West 364 419 36,000  Level FlightAware
05:54AM 61.1670 0.9870 277° West 364 419 36,000  Level FlightAware
05:55AM 61.1720 0.8760 275° West 366 421 36,000  Level FlightAware
05:56AM 61.1810 0.7010 276° West 368 423 36,000  Level FlightAware
05:56AM 61.1890 0.5410 276° West 369 425 36,000  Level FlightAware
05:57AM 61.1960 0.4020 276° West 371 427 36,000  Level FlightAware
05:58AM 61.2030 0.2580 276° West 372 428 36,000  Level FlightAware
05:58AM 61.2110 0.1020 276° West 374 430 36,000  Level FlightAware
05:59AM 61.2220 -0.0060 282° West 385 443 36,000  Level FlightAware
05:59AM 61.2380 -0.1030 289° West 396 456 36,000  Level FlightAware
06:00AM 61.2910 -0.3380 295° West 398 458 36,000  Level FlightAware
06:01AM 61.3160 -0.4490 295° West 395 455 36,000  Level FlightAware
06:02AM 61.3400 -0.5600 294° West 394 453 36,000  Level FlightAware
06:02AM 61.3640 -0.6660 295° West 392 451 36,000  Level FlightAware
06:03AM 61.3950 -0.8080 295° West 393 452 36,000  Level FlightAware
06:03AM 61.4220 -0.9310 295° West 395 455 36,000  Level FlightAware
06:04AM 61.4470 -1.0490 294° West 396 456 36,000  Level FlightAware
06:05AM 61.4760 -1.1830 294° West 397 457 36,000  Level FlightAware
06:05AM 61.5030 -1.3080 294° West 397 457 36,000  Level FlightAware
06:06AM 61.5470 -1.5130 294° West 397 457 36,000  Level FlightAware
06:07AM 61.5740 -1.6420 294° West 398 458 36,000  Level FlightAware
06:07AM 61.6060 -1.7970 294° West 404 465 36,000  Level FlightAware
06:09AM 61.6590 -2.0500 294° West 408 470 36,000  Level FlightAware
06:09AM 61.6840 -2.1730 293° West 411 473 36,000  Level FlightAware
06:10AM 61.7160 -2.3290 293° West 413 475 36,000  Level FlightAware
06:10AM 61.7370 -2.4340 293° West 415 478 36,000  Level FlightAware
06:11AM 61.7640 -2.5660 293° West 418 481 36,000  Level FlightAware
06:12AM 61.7970 -2.7300 293° West 420 483 36,000  Level FlightAware
06:12AM 61.8110 -2.8040 292° West 420 483 36,000  Level FlightAware
06:13AM 61.8490 -2.9930 293° West 418 481 36,000  Level FlightAware
06:13AM 61.8730 -3.1160 293° West 416 479 36,000  Level FlightAware
06:14AM 61.8940 -3.2270 292° West 417 480 36,000  Level FlightAware
06:15AM 61.9220 -3.3690 293° West 418 481 36,000  Level FlightAware
06:15AM 61.9560 -3.5440 293° West 418 481 36,000  Level FlightAware
06:16AM 61.9940 -3.7430 292° West 418 481 36,000  Level FlightAware
06:17AM 62.0240 -3.9100 291° West 418 481 36,000  Level FlightAware
06:18AM 62.0450 -4.0280 291° West 418 481 36,000  Level FlightAware
06:18AM 62.0660 -4.1460 291° West 418 481 36,000  Level FlightAware
06:19AM 62.0940 -4.3030 291° West 418 481 36,000  Level FlightAware
06:20AM 62.1150 -4.4210 291° West 418 481 36,000  Level FlightAware
06:20AM 62.1370 -4.5400 292° West 418 481 36,000  Level FlightAware
06:21AM 62.1890 -4.8020 293° West 398 458 36,000  Level FlightAware
06:22AM 62.2100 -4.9260 290° West 398 458 36,000  Level FlightAware
06:22AM 62.2290 -5.0400 290° West 398 458 36,000  Level FlightAware
06:23AM 62.2490 -5.1570 290° West 398 458 36,000  Level FlightAware
06:23AM 62.2690 -5.2740 290° West 398 458 36,000  Level FlightAware
06:24AM 62.2890 -5.3910 290° West 398 458 36,000  Level FlightAware
06:25AM 62.3080 -5.5080 289° West 398 458 36,000  Level FlightAware
06:25AM 62.3530 -5.7380 293° West 399 459 36,000  Level FlightAware
06:26AM 62.3850 -5.9260 290° West 395 455 36,000  Level FlightAware
06:26AM 62.3910 -5.9650 288° West 396 456 36,000  Level FlightAware
06:27AM 62.4170 -6.1270 289° West 396 456 36,000  Level FlightAware
06:28AM 62.4460 -6.2950 291° West 399 459 36,000  Level FlightAware
06:28AM 62.4720 -6.4560 289° West 399 459 36,000  Level FlightAware
06:29AM 62.4840 -6.5330 289° West 399 459 36,000  Level FlightAware
06:29AM 62.5030 -6.6480 290° West 399 459 36,000  Level FlightAware
06:30AM 62.5150 -6.7250 289° West 399 459 36,000  Level FlightAware
06:31AM 62.5660 -7.0340 290° West 407 468 36,000  Level FlightAware
06:32AM 62.5970 -7.2310 289° West 406 467 36,000  Level FlightAware
06:32AM 62.6150 -7.3530 288° West 406 467 36,000  Level FlightAware
06:33AM 62.6270 -7.4320 288° West 406 467 36,000  Level FlightAware
06:34AM 62.6510 -7.5940 288° West 406 467 36,000  Level FlightAware
06:35AM 62.6810 -7.7930 288° West 406 467 36,000  Level FlightAware
06:35AM 62.6990 -7.9150 288° West 406 467 36,000  Level FlightAware
06:36AM 62.7480 -8.2160 290° West 401 461 36,000  Level FlightAware
06:36AM 62.7620 -8.3130 288° West 401 461 36,000  Level FlightAware
06:37AM 62.7840 -8.4710 287° West 401 461 36,000  Level FlightAware
06:38AM 62.8010 -8.5930 287° West 401 461 36,000  Level FlightAware
06:39AM 62.8220 -8.7450 287° West 401 461 36,000  Level FlightAware
06:39AM 62.8660 -9.0280 289° West 420 483 36,000  Level FlightAware
06:40AM 62.8900 -9.1980 287° West 422 486 36,000  Level FlightAware
06:40AM 62.9070 -9.3190 287° West 423 487 36,000  Level FlightAware
06:41AM 62.9340 -9.5140 287° West 424 488 36,000  Level FlightAware
06:42AM 62.9560 -9.6750 287° West 424 488 36,000  Level FlightAware
06:43AM 62.9820 -9.8650 287° West 425 489 36,000  Level FlightAware
06:44AM 63.0230 -10.1640 287° West 432 497 36,000  Level FlightAware
06:45AM 63.0450 -10.3220 287° West 429 494 36,000  Level FlightAware
06:45AM 63.0650 -10.4710 287° West 425 489 36,000  Level FlightAware
06:46AM 63.0900 -10.6530 287° West 423 487 36,000  Level FlightAware
06:46AM 63.1090 -10.8020 286° West 422 486 36,000  Level FlightAware
06:47AM 63.1260 -10.9270 287° West 423 487 36,000  Level FlightAware
06:48AM 63.1450 -11.0700 286° West 425 489 36,000  Level FlightAware
06:48AM 63.1640 -11.2170 286° West 425 489 36,000  Level FlightAware
06:49AM 63.1830 -11.3680 286° West 425 489 36,000  Level FlightAware
06:49AM 63.1980 -11.4850 286° West 425 489 36,000  Level FlightAware
06:50AM 63.2220 -11.6690 286° West 425 489 36,000  Level FlightAware
06:50AM 63.2360 -11.7860 285° West 428 493 36,000  Level FlightAware
06:51AM 63.2550 -11.9400 285° West 430 495 36,000  Level FlightAware
06:52AM 63.2910 -12.2360 285° West 432 497 36,000  Level FlightAware
06:53AM 63.3250 -12.5130 285° West 433 498 36,000  Level FlightAware
06:54AM 63.3400 -12.6430 284° West 433 498 36,000  Level FlightAware
06:54AM 63.3630 -12.8360 285° West 432 497 36,000  Level FlightAware
06:55AM 63.3850 -13.0270 284° West 434 499 36,000  Level FlightAware
06:56AM 63.4030 -13.1830 285° West 436 502 36,000  Level FlightAware
06:57AM 63.4230 -13.3600 284° West 435 501 36,000  Level FlightAware
06:57AM 63.4380 -13.4980 284° West 436 502 36,000  Level FlightAware
06:58AM 63.4610 -13.7070 284° West 433 498 36,000  Level FlightAware
06:58AM 63.4760 -13.8430 284° West 431 496 36,000  Level FlightAware
06:59AM 63.4930 -14.0000 284° West 432 497 36,000  Level FlightAware
07:00AM 63.5150 -14.2100 283° West 435 501 36,000  Level FlightAware
07:00AM 63.5330 -14.3830 283° West 433 498 36,000  Level FlightAware
07:01AM 63.5460 -14.5040 284° West 433 498 36,000  Level FlightAware
07:01AM 63.5600 -14.6450 283° West 432 497 36,000  Level FlightAware
07:02AM 63.5760 -14.8000 283° West 430 495 36,000  Level FlightAware
07:03AM 63.5960 -14.9920 283° West 431 496 36,000  Level FlightAware
07:03AM 63.6130 -15.1690 282° West 435 501 36,000  Level FlightAware
07:04AM 63.6320 -15.3670 282° West 439 505 36,000  Level FlightAware
07:05AM 63.6460 -15.5130 282° West 436 502 36,000  Level FlightAware
07:06AM 63.6660 -15.7220 282° West 435 501 36,000  Level FlightAware
07:06AM 63.6800 -15.8760 282° West 433 498 36,000  Level FlightAware
07:07AM 63.7010 -16.0970 282° West 431 496 36,000  Level FlightAware
07:08AM 63.7250 -16.3640 282° West 432 497 36,000  Level FlightAware
07:09AM 63.7480 -16.6300 281° West 433 498 36,000  Level FlightAware
07:10AM 63.7630 -16.7960 282° West 431 496 36,000  Level FlightAware
07:10AM 63.7780 -16.9820 280° West 432 497 36,000  Level FlightAware
07:11AM 63.7850 -17.0600 282° West 432 497 36,000  Level FlightAware
07:11AM 63.8020 -17.2640 281° West 431 496 36,000  Level FlightAware
07:12AM 63.8170 -17.4520 280° West 432 497 36,000  Level FlightAware
07:13AM 63.8300 -17.6110 281° West 432 497 36,000  Level FlightAware
07:13AM 63.8420 -17.7640 280° West 431 496 36,000  Level FlightAware
07:14AM 63.8550 -17.9290 280° West 430 495 36,000  Level FlightAware
07:15AM 63.8690 -18.1070 280° West 431 496 36,000  Level FlightAware
07:15AM 63.8840 -18.3050 280° West 430 495 36,000  Level FlightAware
07:16AM 63.9050 -18.5930 280° West 431 496 36,000  Level FlightAware
07:17AM 63.9160 -18.7500 279° West 431 496 36,000  Level FlightAware
07:17AM 63.9270 -18.8990 280° West 431 496 36,000  Level FlightAware
07:18AM 63.9380 -19.0540 279° West 431 496 36,000  Level FlightAware
07:19AM 63.9520 -19.2550 279° West 429 494 36,000  Level FlightAware
07:19AM 63.9590 -19.3700 278° West 430 495 36,000  Level FlightAware
07:20AM 63.9690 -19.5220 279° West 432 497 36,000  Level FlightAware
07:21AM 63.9830 -19.7310 279° West 434 499 36,000  Level FlightAware
07:21AM 63.9930 -19.8930 278° West 437 503 36,000  Level FlightAware
07:22AM 64.0020 -20.0600 277° West 434 499 36,000  Level FlightAware
07:22AM 64.0080 -20.2340 275° West 433 498 36,000  Level FlightAware
07:23AM 64.0140 -20.4120 274° West 431 496 36,000  Level FlightAware
07:24AM 64.0180 -20.5490 274° West 432 497 36,000  Level FlightAware
07:24AM 64.0240 -20.7360 274° West 432 497 36,000  Level FlightAware
07:25AM 64.0290 -20.9050 274° West 434 499 36,000  Level FlightAware
07:25AM 64.0330 -21.0620 273° West 432 497 36,000  Level FlightAware
07:26AM 64.0380 -21.2690 273° West 431 496 36,000  Level FlightAware
07:27AM 64.0420 -21.4260 273° West 434 499 36,000  Level FlightAware
07:27AM 64.0460 -21.5760 274° West 435 501 36,000  Level FlightAware
07:28AM 64.0510 -21.7810 273° West 434 499 36,000  Level FlightAware
07:29AM 64.0540 -21.9550 272° West 432 497 36,000  Level FlightAware
07:29AM 64.0570 -22.1030 273° West 431 496 36,000  Level FlightAware
07:30AM 64.0610 -22.2640 273° West 430 495 36,000 480 Level FlightAware
07:31AM 64.0630 -22.4270 272° West 428 493 36,600 900 Climbing FlightAware
07:31AM 64.0660 -22.5580 273° West 426 490 37,000 360 Climbing FlightAware
07:32AM 64.0680 -22.7130 272° West 431 496 37,000  Level FlightAware
07:32AM 64.0710 -22.8930 272° West 429 494 37,000  Level FlightAware
07:33AM 64.0740 -23.0840 272° West 425 489 37,000  Level FlightAware
07:33AM 64.0760 -23.2280 272° West 424 488 37,000  Level FlightAware
07:34AM 64.0770 -23.3640 271° West 422 486 37,000  Level FlightAware
07:35AM 64.0790 -23.5480 272° West 423 487 37,000  Level FlightAware
07:35AM 64.0810 -23.7220 272° West 424 488 37,000  Level FlightAware
07:36AM 64.0820 -23.8660 271° West 424 488 37,000  Level FlightAware
07:37AM 64.0840 -24.1340 271° West 424 488 37,000  Level FlightAware
07:38AM 64.0850 -24.4100 271° West 425 489 37,000  Level FlightAware
07:38AM 64.0860 -24.5530 271° West 424 488 37,000  Level FlightAware
07:39AM 64.0860 -24.7100 270° West 422 486 37,000  Level FlightAware
07:40AM 64.0860 -24.9760 270° West 422 486 37,000  Level FlightAware
07:41AM 64.0860 -25.2850 270° West 424 488 37,000  Level FlightAware
07:42AM 64.0860 -25.4610 270° West 425 489 37,000  Level FlightAware
07:42AM 64.0850 -25.6270 269° West 425 489 37,000  Level FlightAware
07:43AM 64.0840 -25.8270 269° West 426 490 37,000  Level FlightAware
07:44AM 64.0830 -25.9330 269° West 426 490 37,000  Level FlightAware
07:44AM 64.0820 -26.1320 269° West 427 491 37,000  Level FlightAware
07:45AM 64.0810 -26.2740 269° West 427 491 37,000  Level FlightAware
07:46AM 64.0790 -26.4600 269° West 427 491 37,000  Level FlightAware
07:46AM 64.0770 -26.6030 268° West 426 490 37,000  Level FlightAware
07:47AM 64.0760 -26.7590 269° West 425 489 37,000  Level FlightAware
07:47AM 64.0740 -26.9110 268° West 425 489 37,000  Level FlightAware
07:48AM 64.0720 -27.0640 268° West 425 489 37,000  Level FlightAware
07:48AM 64.0690 -27.2510 268° West 427 491 37,000  Level FlightAware
07:49AM 64.0660 -27.4270 268° West 426 490 37,000  Level FlightAware
07:50AM 64.0640 -27.5640 268° West 425 489 37,000  Level FlightAware
07:50AM 64.0610 -27.7280 268° West 424 488 37,000  Level FlightAware
07:51AM 64.0580 -27.8920 268° West 425 489 37,000  Level FlightAware
07:51AM 64.0550 -28.0350 267° West 424 488 37,000  Level FlightAware
07:52AM 64.0510 -28.2260 267° West 425 489 37,000  Level FlightAware
07:53AM 64.0470 -28.3890 267° West 425 489 37,000  Level FlightAware
07:53AM 64.0430 -28.5350 266° West 423 487 37,000  Level FlightAware
07:54AM 64.0380 -28.7360 267° West 424 488 37,000  Level FlightAware
07:55AM 64.0350 -28.8800 267° West 424 488 37,000  Level FlightAware
07:55AM 64.0300 -29.0440 266° West 424 488 37,000  Level FlightAware
07:56AM 64.0260 -29.1790 266° West 424 488 37,000  Level FlightAware
07:56AM 64.0210 -29.3440 266° West 424 488 37,000  Level FlightAware
07:57AM 64.0180 -29.4700 267° West 426 490 37,000  Level FlightAware
07:57AM 64.0110 -29.6670 265° West 426 490 37,000  Level FlightAware
07:58AM 64.0070 -29.8040 266° West 427 491 37,000  Level FlightAware
07:58AM 64.0020 -29.9390 265° West 425 489 37,000  Level FlightAware
07:59AM 63.9940 -30.0930 263° West 423 487 37,000  Level FlightAware
08:00AM 63.9830 -30.2700 262° West 425 489 37,000  Level FlightAware
08:01AM 63.9670 -30.5210 262° West 425 489 37,000  Level FlightAware
08:02AM 63.9490 -30.7810 261° West 427 491 37,000  Level FlightAware
08:02AM 63.9340 -30.9980 261° West 428 493 37,000  Level FlightAware
08:03AM 63.9260 -31.1200 262° West 429 494 37,000  Level FlightAware
08:04AM 63.9140 -31.2790 260° West 429 494 37,000  Level FlightAware
08:04AM 63.9020 -31.4530 261° West 427 491 37,000  Level FlightAware
08:05AM 63.8920 -31.5880 261° West 427 491 37,000  Level FlightAware
08:05AM 63.8820 -31.7160 260° West 427 491 37,000  Level FlightAware
08:06AM 63.8710 -31.8510 260° West 427 491 37,000  Level FlightAware
08:07AM 63.8540 -32.0760 260° West 427 491 37,000  Level FlightAware
08:08AM 63.8330 -32.3460 260° West 427 491 37,000  Level FlightAware
08:09AM 63.8190 -32.5260 260° West 427 491 37,000  Level FlightAware
08:10AM 63.8050 -32.7060 260° West 427 491 37,000  Level FlightAware
08:10AM 63.7980 -32.7960 260° West 427 491 37,000  Level FlightAware
08:11AM 63.7810 -33.0130 260° West 427 491 37,000  Level FlightAware
08:12AM 63.7670 -33.1850 260° West 427 491 37,000  Level FlightAware
08:13AM 63.7530 -33.3650 260° West 427 491 37,000  Level FlightAware
08:13AM 63.7430 -33.4990 260° West 427 491 37,000  Level FlightAware
08:14AM 63.7320 -33.6340 260° West 427 491 37,000  Level FlightAware
08:14AM 63.7250 -33.7240 260° West 427 491 37,000  Level FlightAware
08:18AM 63.5484 -34.4323 241° Southwest  Level Estimated
08:19AM 63.4930 -34.6496 240° Southwest  Level Estimated
08:20AM 63.4374 -34.8660 240° Southwest  Level Estimated
08:21AM 63.3814 -35.0816 240° Southwest  Level Estimated
08:22AM 63.3251 -35.2964 240° Southwest  Level Estimated
08:23AM 63.2685 -35.5103 240° Southwest  Level Estimated
08:24AM 63.2115 -35.7233 239° Southwest  Level Estimated
08:25AM 63.1542 -35.9356 239° Southwest  Level Estimated
08:26AM 63.0966 -36.1470 239° Southwest  Level Estimated
08:27AM 63.0387 -36.3575 239° Southwest  Level Estimated
08:28AM 62.9805 -36.5672 239° Southwest  Level Estimated
08:29AM 62.9220 -36.7761 238° Southwest  Level Estimated
08:30AM 62.8632 -36.9842 238° Southwest  Level Estimated
08:31AM 62.8041 -37.1914 238° Southwest  Level Estimated
08:32AM 62.7446 -37.3978 238° Southwest  Level Estimated
08:33AM 62.6849 -37.6033 238° Southwest  Level Estimated
08:34AM 62.6249 -37.8080 238° Southwest  Level Estimated
08:35AM 62.5645 -38.0119 237° Southwest  Level Estimated
08:36AM 62.5039 -38.2150 237° Southwest  Level Estimated
08:37AM 62.4430 -38.4172 237° Southwest  Level Estimated
08:38AM 62.3818 -38.6186 237° Southwest  Level Estimated
08:39AM 62.3203 -38.8192 237° Southwest  Level Estimated
08:40AM 62.2585 -39.0190 236° Southwest  Level Estimated
08:41AM 62.1964 -39.2179 236° Southwest  Level Estimated
08:42AM 62.1341 -39.4161 236° Southwest  Level Estimated
08:43AM 62.0714 -39.6134 236° Southwest  Level Estimated
08:44AM 62.0085 -39.8099 236° Southwest  Level Estimated
08:45AM 61.9453 -40.0056 236° Southwest  Level Estimated
08:46AM 61.8818 -40.2005 235° Southwest  Level Estimated
08:47AM 61.8181 -40.3945 235° Southwest  Level Estimated
08:48AM 61.7541 -40.5878 235° Southwest  Level Estimated
08:49AM 61.6898 -40.7802 235° Southwest  Level Estimated
08:50AM 61.6252 -40.9719 235° Southwest  Level Estimated
08:51AM 61.5604 -41.1628 235° Southwest  Level Estimated
08:52AM 61.4953 -41.3528 234° Southwest  Level Estimated
08:53AM 61.4299 -41.5421 234° Southwest  Level Estimated
08:54AM 61.3643 -41.7306 234° Southwest  Level Estimated
08:55AM 61.2984 -41.9182 234° Southwest  Level Estimated
08:56AM 61.2323 -42.1051 234° Southwest  Level Estimated
08:57AM 61.1659 -42.2912 234° Southwest  Level Estimated
08:58AM 61.0992 -42.4766 233° Southwest  Level Estimated
08:59AM 61.0323 -42.6611 233° Southwest  Level Estimated
09:00AM 60.9652 -42.8449 233° Southwest  Level Estimated
09:01AM 60.8978 -43.0279 233° Southwest  Level Estimated
09:02AM 60.8301 -43.2101 233° Southwest  Level Estimated
09:03AM 60.7622 -43.3915 233° Southwest  Level Estimated
09:04AM 60.6941 -43.5722 232° Southwest  Level Estimated
09:05AM 60.6257 -43.7521 232° Southwest  Level Estimated
09:06AM 60.5571 -43.9313 232° Southwest  Level Estimated
09:07AM 60.4883 -44.1097 232° Southwest  Level Estimated
09:08AM 60.4192 -44.2873 232° Southwest  Level Estimated
09:09AM 60.3498 -44.4642 232° Southwest  Level Estimated
09:10AM 60.2803 -44.6403 232° Southwest  Level Estimated
09:11AM 60.2105 -44.8157 231° Southwest  Level Estimated
09:12AM 60.1404 -44.9903 231° Southwest  Level Estimated
09:13AM 60.0702 -45.1642 231° Southwest  Level Estimated
09:14AM 59.9997 -45.3374 231° Southwest  Level Estimated
09:14AM 62.1420 -48.9520 231° Southwest 425 489 37,000  Level FlightAware
09:14AM 62.1150 -49.1600 255° West 425 489 37,000  Level FlightAware
09:15AM 62.0970 -49.2970 254° West 423 487 37,000  Level FlightAware
09:16AM 62.0760 -49.4470 253° West 423 487 37,000  Level FlightAware
09:16AM 62.0580 -49.5790 254° West 423 487 37,000  Level FlightAware
09:17AM 62.0400 -49.7020 253° West 423 487 37,000  Level FlightAware
09:17AM 62.0230 -49.8240 254° West 423 487 37,000  Level FlightAware
09:18AM 62.0050 -49.9460 253° West 423 487 37,000  Level FlightAware
09:19AM 61.9680 -50.1800 251° West 428 493 37,000  Level FlightAware
09:19AM 61.9470 -50.3030 250° West 427 491 37,000  Level FlightAware
09:20AM 61.9140 -50.4860 249° West 427 491 37,000  Level FlightAware
09:20AM 61.8890 -50.6230 249° West 426 490 37,000  Level FlightAware
09:21AM 61.8560 -50.8050 249° West 428 493 37,000  Level FlightAware
09:22AM 61.8310 -50.9340 248° West 428 493 37,000  Level FlightAware
09:22AM 61.8030 -51.0910 249° West 428 493 37,000  Level FlightAware
09:23AM 61.7800 -51.2130 248° West 432 497 37,000  Level FlightAware
09:24AM 61.7470 -51.3830 248° West 432 497 37,000  Level FlightAware
09:24AM 61.7260 -51.4960 249° West 432 497 37,000  Level FlightAware
09:25AM 61.6980 -51.6480 249° West 432 497 37,000  Level FlightAware
09:26AM 61.6650 -51.8170 248° West 430 495 37,000  Level FlightAware
09:26AM 61.6440 -51.9240 248° West 429 494 37,000  Level FlightAware
09:27AM 61.6160 -52.0730 248° West 428 493 37,000  Level FlightAware
09:27AM 61.5940 -52.1830 247° West 429 494 37,000  Level FlightAware
09:28AM 61.5680 -52.3130 247° West 429 494 37,000  Level FlightAware
09:28AM 61.5430 -52.4400 248° West 429 494 37,000  Level FlightAware
09:29AM 61.5110 -52.5970 247° West 429 494 37,000  Level FlightAware
09:30AM 61.4870 -52.7140 247° West 429 494 37,000  Level FlightAware
09:31AM 61.4250 -53.0180 247° West 431 496 37,000  Level FlightAware
09:32AM 61.4000 -53.1370 246° West 431 496 37,000  Level FlightAware
09:32AM 61.3750 -53.2540 246° West 431 496 37,000  Level FlightAware
09:33AM 61.3420 -53.4090 246° West 431 496 37,000  Level FlightAware
09:34AM 61.3000 -53.6020 246° West 431 496 37,000  Level FlightAware
09:35AM 61.2690 -53.7510 247° West 431 496 37,000  Level FlightAware
09:35AM 61.2520 -53.8280 245° Southwest 431 496 37,000  Level FlightAware
09:36AM 61.2190 -53.9820 246° West 431 496 37,000  Level FlightAware
09:37AM 61.1690 -54.2170 246° West 431 496 37,000  Level FlightAware
09:38AM 61.1440 -54.3320 246° West 431 496 37,000  Level FlightAware
09:38AM 61.1190 -54.4480 246° West 431 496 37,000  Level FlightAware
09:39AM 61.0780 -54.6400 246° West 431 496 37,000  Level FlightAware
09:40AM 61.0530 -54.7550 246° West 431 496 37,000  Level FlightAware
09:40AM 61.0440 -54.7940 245° Southwest 431 496 37,000  Level FlightAware
09:44AM 60.7973 -55.3719 222° Southwest  Level FlightAware Approximate
09:45AM 60.7123 -55.5261 222° Southwest  Level FlightAware Approximate
09:46AM 60.6270 -55.6795 221° Southwest  Level FlightAware Approximate
09:47AM 60.5416 -55.8321 221° Southwest  Level FlightAware Approximate
09:48AM 60.4560 -55.9838 221° Southwest  Level FlightAware Approximate
09:49AM 60.3702 -56.1348 221° Southwest  Level FlightAware Approximate
09:50AM 60.2842 -56.2850 221° Southwest  Level FlightAware Approximate
09:51AM 60.1981 -56.4343 221° Southwest  Level FlightAware Approximate
09:52AM 60.1118 -56.5829 221° Southwest  Level FlightAware Approximate
09:53AM 60.0254 -56.7308 221° Southwest  Level FlightAware Approximate
09:54AM 59.9388 -56.8778 220° Southwest  Level FlightAware Approximate
09:55AM 59.8520 -57.0241 220° Southwest  Level FlightAware Approximate
09:56AM 59.7653 -57.1702 220° Southwest  Level FlightAware Approximate
09:57AM 59.6785 -57.3158 220° Southwest  Level FlightAware Approximate
09:58AM 59.5917 -57.4607 220° Southwest  Level FlightAware Approximate
09:59AM 59.5046 -57.6049 220° Southwest  Level FlightAware Approximate
10:00AM 59.4174 -57.7483 220° Southwest  Level FlightAware Approximate
10:01AM 59.3301 -57.8909 220° Southwest  Level FlightAware Approximate
10:02AM 59.2425 -58.0329 220° Southwest  Level FlightAware Approximate
10:03AM 59.1549 -58.1741 220° Southwest  Level FlightAware Approximate
10:04AM 59.0671 -58.3146 219° Southwest  Level FlightAware Approximate
10:05AM 58.9791 -58.4543 219° Southwest  Level FlightAware Approximate
10:06AM 58.8910 -58.5934 219° Southwest  Level FlightAware Approximate
10:07AM 58.8027 -58.7318 219° Southwest  Level FlightAware Approximate
10:08AM 58.7143 -58.8694 219° Southwest  Level FlightAware Approximate
10:09AM 58.6257 -59.0064 219° Southwest  Level FlightAware Approximate
10:10AM 58.5370 -59.1426 219° Southwest  Level FlightAware Approximate
10:11AM 58.4481 -59.2780 218° Southwest  Level FlightAware Approximate
10:12AM 58.3587 -59.4120 218° Southwest  Level FlightAware Approximate
10:13AM 58.2692 -59.5453 218° Southwest  Level FlightAware Approximate
10:14AM 58.1796 -59.6779 218° Southwest  Level FlightAware Approximate
10:15AM 58.0898 -59.8099 218° Southwest  Level FlightAware Approximate
10:16AM 57.9990 -59.9388 214° Southwest  Level FlightAware Approximate
10:17AM 57.9041 -60.0568 213° Southwest  Level FlightAware Approximate
10:18AM 57.8092 -60.1741 213° Southwest  Level FlightAware Approximate
10:19AM 57.7141 -60.2909 213° Southwest  Level FlightAware Approximate
10:20AM 57.6190 -60.4070 213° Southwest  Level FlightAware Approximate
10:21AM 57.5237 -60.5226 213° Southwest  Level FlightAware Approximate
10:22AM 57.4283 -60.6375 213° Southwest  Level FlightAware Approximate
10:23AM 57.3329 -60.7518 213° Southwest  Level FlightAware Approximate
10:24AM 57.2373 -60.8656 213° Southwest  Level FlightAware Approximate
10:24AM 56.7333 -61.4500 212° Southwest 390 449 37,000  Level Moncton Center
10:25AM 57.1416 -60.9787 213° Southwest  Level FlightAware Approximate
10:25AM 56.6667 -61.5333 214° Southwest 430 495 37,000  Level Gander Center
10:26AM 57.0458 -61.0913 213° Southwest  Level FlightAware Approximate
10:26AM 56.5500 -61.6500 209° Southwest 440 506 37,000  Level Gander Center
10:27AM 56.9499 -61.2033 213° Southwest  Level FlightAware Approximate
10:27AM 56.4500 -61.7333 205° Southwest 440 506 37,000  Level Gander Center
10:28AM 56.3333 -61.8500 209° Southwest 440 506 37,000  Level Gander Center
10:29AM 56.2333 -61.9500 209° Southwest 440 506 37,000  Level Gander Center
10:30AM 56.6619 -61.5364 212° Southwest  Level FlightAware Approximate
10:30AM 56.1167 -62.0667 209° Southwest 450 518 37,000  Level Gander Center
10:31AM 56.0167 -62.1500 205° Southwest 440 506 37,000  Level Gander Center
10:32AM 55.9000 -62.2667 209° Southwest 440 506 37,000  Level Gander Center
10:33AM 55.8000 -62.3500 205° Southwest 450 518 37,000  Level Gander Center
10:34AM 55.6833 -62.4667 209° Southwest 440 506 37,000  Level Gander Center
10:35AM 55.5667 -62.5500 202° Southwest 450 518 37,000  Level Gander Center
10:36AM 55.4667 -62.6667 213° Southwest 450 518 37,000  Level Gander Center
10:37AM 55.3500 -62.7500 202° Southwest 450 518 37,000  Level Gander Center
10:38AM 55.2333 -62.8333 202° Southwest 450 518 37,000  Level Gander Center
10:39AM 55.1167 -62.9500 210° Southwest 440 506 37,000  Level Gander Center
10:40AM 55.0000 -63.0333 202° Southwest 450 518 37,000  Level Gander Center
10:41AM 54.8833 -63.1167 202° Southwest 450 518 37,000  Level Gander Center
10:42AM 54.7833 -63.2000 206° Southwest 450 518 37,000  Level Gander Center
10:43AM 54.6667 -63.2833 202° Southwest 440 506 37,000  Level Gander Center
10:44AM 54.5500 -63.3500 198° South 450 518 37,000  Level Gander Center
10:45AM 54.4333 -63.4333 203° Southwest 450 518 37,000  Level Gander Center
10:46AM 54.3167 -63.5167 203° Southwest 450 518 37,000  Level Gander Center
10:47AM 54.2167 -63.6000 206° Southwest 450 518 37,000  Level Gander Center
10:48AM 54.0833 -63.6833 200° South 440 506 37,000  Level Gander Center
10:49AM 53.9667 -63.7500 199° South 450 518 37,000  Level Gander Center
10:50AM 53.8500 -63.8667 211° Southwest 460 529 37,000  Level Gander Center
10:51AM 53.7333 -63.9333 199° South 450 518 37,000  Level Gander Center
10:52AM 53.6333 -64.0167 206° Southwest 450 518 37,000  Level Gander Center
10:53AM 53.5167 -64.1000 203° Southwest 450 518 37,000  Level Gander Center
10:54AM 53.4000 -64.1667 199° South 460 529 37,000  Level Gander Center
10:55AM 53.2833 -64.2500 203° Southwest 450 518 37,000  Level Gander Center
10:56AM 53.1667 -64.3167 199° South 450 518 37,000  Level Gander Center
10:57AM 53.0333 -64.4167 204° Southwest 460 529 37,000  Level Gander Center
10:58AM 52.9333 -64.5000 207° Southwest 450 518 37,000  Level Gander Center
10:59AM 52.8000 -64.5667 197° South 460 529 37,000  Level Gander Center
11:00AM 52.7000 -64.6500 207° Southwest 460 529 37,000  Level Gander Center
11:01AM 52.5833 -64.7167 199° South 450 518 37,000  Level Gander Center
11:02AM 52.4500 -64.8167 205° Southwest 450 518 37,000  Level Gander Center
11:03AM 52.3333 -64.8667 195° South 440 506 37,000  Level Gander Center
11:04AM 52.2333 -64.9500 207° Southwest 440 506 37,000  Level Gander Center
11:05AM 52.1167 -65.0333 204° Southwest 440 506 37,000  Level Gander Center
11:06AM 52.0167 -65.0833 197° South 430 495 37,000  Level Gander Center
11:07AM 51.9000 -65.1500 199° South 420 483 37,000  Level Gander Center
11:08AM 51.8000 -65.2333 207° Southwest 420 483 37,000  Level Gander Center
11:09AM 51.6500 -65.3167 199° South 420 483 37,000  Level Moncton Center
11:10AM 51.5333 -65.4000 204° Southwest 420 483 37,000  Level Moncton Center
11:11AM 51.4500 -65.4500 201° Southwest 420 483 37,000  Level Gander Center
11:12AM 51.3500 -65.5167 203° Southwest 420 483 37,000  Level Gander Center
11:13AM 51.2500 -65.5833 203° Southwest 420 483 37,000  Level Gander Center
11:14AM 51.1167 -65.6500 197° South 420 483 37,000  Level Gander Center
11:15AM 51.0167 -65.7167 203° Southwest 420 483 37,000  Level Gander Center
11:16AM 50.9000 -65.7833 200° South 420 483 37,000  Level Gander Center
11:17AM 50.8000 -65.8667 208° Southwest 430 495 37,000  Level Gander Center
11:18AM 50.7000 -65.9333 203° Southwest 430 495 37,000  Level Gander Center
11:19AM 50.5833 -65.9667 190° South 420 483 37,000  Level Gander Center
11:20AM 50.4667 -66.0333 200° South 420 483 37,000  Level Gander Center
11:21AM 50.3500 -66.1000 200° South 420 483 37,000  Level Gander Center
11:22AM 50.2500 -66.1667 203° Southwest 420 483 37,000 120 Level Gander Center
11:28AM 49.6530 -66.5360 203° Southwest 432 497 38,000 120 Climbing FlightAware
11:28AM 49.5780 -66.5790 200° South 433 498 38,000  Level FlightAware
11:29AM 49.5170 -66.6140 200° South 435 501 38,000  Level FlightAware
11:29AM 49.4560 -66.6490 200° South 435 501 38,000  Level FlightAware
11:30AM 49.3820 -66.6900 200° South 437 503 38,000  Level FlightAware
11:31AM 49.3210 -66.7250 201° Southwest 438 504 38,000  Level FlightAware
11:31AM 49.2590 -66.7600 200° South 437 503 38,000  Level FlightAware
11:32AM 49.2010 -66.7940 201° Southwest 438 504 38,000  Level FlightAware
11:33AM 49.0860 -66.8580 200° South 438 504 38,000  Level FlightAware
11:33AM 48.9920 -66.9110 200° South 436 502 38,000  Level FlightAware
11:34AM 48.8770 -66.9740 200° South 433 498 38,000  Level FlightAware
11:36AM 48.7440 -67.0480 200° South 435 501 38,000  Level FlightAware
11:36AM 48.6620 -67.0940 200° South 435 501 38,000  Level FlightAware
11:37AM 48.5970 -67.1300 200° South 434 499 38,000  Level FlightAware
11:38AM 48.4740 -67.1970 200° South 431 496 38,000  Level FlightAware
11:39AM 48.4180 -67.2280 200° South 431 496 38,000  Level FlightAware
11:39AM 48.3550 -67.2610 199° South 430 495 38,000  Level FlightAware
11:40AM 48.2920 -67.2960 200° South 430 495 38,000  Level FlightAware
11:40AM 48.2260 -67.3320 200° South 432 497 38,000  Level FlightAware
11:41AM 48.1160 -67.3910 200° South 434 499 38,000  Level FlightAware
11:42AM 48.0500 -67.4260 200° South 434 499 38,000  Level FlightAware
11:42AM 47.9930 -67.4570 200° South 433 498 38,000  Level FlightAware
11:43AM 47.9220 -67.4950 200° South 432 497 38,000  Level FlightAware
11:43AM 47.8700 -67.5230 200° South 432 497 38,000  Level FlightAware
11:44AM 47.7930 -67.5630 199° South 432 497 38,000  Level FlightAware
11:45AM 47.7160 -67.6030 199° South 432 497 38,000  Level FlightAware
11:46AM 47.6580 -67.6320 199° South 432 497 38,000  Level FlightAware
11:46AM 47.5490 -67.6930 201° Southwest 436 502 38,000  Level FlightAware
11:47AM 47.4690 -67.7350 200° South 435 501 38,000  Level FlightAware
11:48AM 47.3790 -67.7810 199° South 435 501 38,000  Level FlightAware
11:49AM 47.2510 -67.8490 200° South 433 498 38,000  Level FlightAware
11:50AM 47.1710 -67.8910 200° South 433 498 38,000  Level FlightAware
11:50AM 47.1030 -67.9260 199° South 433 498 38,000  Level FlightAware
11:51AM 47.0410 -67.9580 199° South 433 498 38,000  Level FlightAware
11:51AM 46.9760 -67.9910 199° South 433 498 38,000  Level FlightAware
11:52AM 46.8610 -68.0510 200° South 435 501 38,000  Level FlightAware
11:53AM 46.7360 -68.1240 202° Southwest 431 496 38,000  Level FlightAware
11:54AM 46.6790 -68.1700 209° Southwest 429 494 38,000  Level FlightAware
11:55AM 46.6150 -68.2220 209° Southwest 428 493 38,000  Level FlightAware
11:55AM 46.5590 -68.2670 209° Southwest 429 494 38,000  Level FlightAware
11:56AM 46.5090 -68.3070 209° Southwest 430 495 38,000  Level FlightAware
11:56AM 46.4460 -68.3570 209° Southwest 431 496 38,000  Level FlightAware
11:57AM 46.3400 -68.4410 209° Southwest 430 495 38,000  Level FlightAware
11:58AM 46.2240 -68.5330 209° Southwest 430 495 38,000  Level FlightAware
11:59AM 46.1790 -68.5680 208° Southwest 430 495 38,000  Level FlightAware
11:59AM 46.1110 -68.6210 208° Southwest 430 495 38,000  Level FlightAware
12:00PM 46.0833 -68.6429 209° Southwest 431 496 38,000  Level FlightAware ADS-B
12:01PM 45.9810 -68.7230 209° Southwest 429 494 38,000  Level FlightAware
12:02PM 45.8886 -68.7945 208° Southwest 429 494 38,000  Level FlightAware ADS-B
12:02PM 45.8330 -68.8370 208° Southwest 429 494 38,000  Level FlightAware
12:03PM 45.7925 -68.8689 209° Southwest 430 495 38,000  Level FlightAware ADS-B
12:03PM 45.7277 -68.9188 208° Southwest 430 495 38,000  Level FlightAware ADS-B
12:04PM 45.6170 -69.0040 208° Southwest 432 497 38,000  Level FlightAware
12:05PM 45.7251 -68.9209 28° Northeast 434 499 38,000  Level FlightAware ADS-B (CYQI)
12:06PM 45.4700 -69.1160 208° Southwest 436 502 38,000  Level FlightAware
12:06PM 45.3882 -69.1788 208° Southwest 435 501 38,000  Level FlightAware ADS-B
12:07PM 45.3261 -69.2260 208° Southwest 435 501 38,000  Level FlightAware ADS-B
12:07PM 45.2684 -69.2695 208° Southwest 435 501 38,000  Level FlightAware ADS-B
12:08PM 45.2286 -69.2995 208° Southwest 438 504 38,000  Level FlightAware ADS-B (CYQI)
12:09PM 45.1452 -69.3624 208° Southwest 441 507 38,000  Level FlightAware ADS-B (CYQI)
12:09PM 45.1104 -69.3886 208° Southwest 442 509 38,000  Level FlightAware ADS-B (CYQI)
12:10PM 45.0119 -69.4624 208° Southwest 443 510 38,000  Level FlightAware ADS-B (KBGR)
12:10PM 44.9617 -69.5000 208° Southwest 444 511 38,000  Level FlightAware ADS-B
12:11PM 44.9007 -69.5456 208° Southwest 444 511 38,000  Level FlightAware ADS-B
12:11PM 44.8385 -69.5919 208° Southwest 443 510 38,000  Level FlightAware ADS-B
12:12PM 44.7660 -69.6458 208° Southwest 442 509 38,000  Level FlightAware ADS-B
12:13PM 44.7052 -69.6909 208° Southwest 442 509 38,000  Level FlightAware ADS-B
12:13PM 44.6342 -69.7431 208° Southwest 442 509 38,000  Level FlightAware ADS-B
12:14PM 44.5785 -69.7841 208° Southwest 441 507 38,000  Level FlightAware ADS-B (CYQI)
12:14PM 44.5232 -69.8247 208° Southwest 441 507 38,000  Level FlightAware ADS-B
12:15PM 44.4493 -69.8789 208° Southwest 442 509 38,000  Level FlightAware ADS-B (CYQI)
12:15PM 44.3933 -69.9197 208° Southwest 434 499 38,000  Level FlightAware ADS-B
12:16PM 44.3387 -69.9596 208° Southwest 440 506 38,000  Level FlightAware ADS-B (CYQI)
12:17PM 44.2721 -70.0082 208° Southwest 439 505 38,000  Level FlightAware ADS-B (CYQI)
12:17PM 44.1954 -70.0639 208° Southwest 439 505 38,000  Level FlightAware ADS-B (KBGR)
12:18PM 44.1290 -70.1120 207° Southwest 441 507 38,000  Level FlightAware ADS-B (CYQI)
12:18PM 44.0714 -70.1536 207° Southwest 440 506 38,000  Level FlightAware ADS-B (CYQI)
12:19PM 44.0014 -70.2041 207° Southwest 442 509 38,000  Level FlightAware ADS-B (CYQI)
12:20PM 43.9408 -70.2477 207° Southwest 434 499 38,000  Level FlightAware ADS-B
12:20PM 43.9152 -70.2660 207° Southwest 435 501 38,000  Level FlightAware ADS-B
12:20PM 43.8532 -70.3103 207° Southwest 436 502 38,000  Level FlightAware ADS-B
12:21PM 43.7904 -70.3551 207° Southwest 435 501 38,000  Level FlightAware ADS-B
12:22PM 43.7366 -70.3934 207° Southwest 435 501 38,000  Level FlightAware ADS-B
12:22PM 43.7230 -70.4031 207° Southwest 441 507 38,000  Level FlightAware ADS-B (CYQI)
12:22PM 43.6650 -70.4450 208° Southwest 442 509 38,000  Level FlightAware
12:22PM 43.6828 -70.4317 28° Northeast 443 510 38,000  Level FlightAware ADS-B (KBOS)
12:24PM 43.5792 -70.5053 207° Southwest 444 511 38,000  Level FlightAware ADS-B (KBOS)
12:24PM 43.4346 -70.6031 206° Southwest 449 517 38,000  Level FlightAware ADS-B (KBOS)
12:25PM 43.3735 -70.6300 198° South 455 524 38,000  Level FlightAware ADS-B (KBOS)
12:25PM 43.3109 -70.6524 195° South 455 524 38,000  Level FlightAware ADS-B (KBOS)
12:26PM 43.2525 -70.6747 195° South 456 525 38,000  Level FlightAware ADS-B (KBOS)
12:26PM 43.1907 -70.6973 195° South 458 527 38,000  Level FlightAware ADS-B (KBOS)
12:27PM 43.1278 -70.7200 195° South 458 527 38,000  Level FlightAware ADS-B (KBOS)
12:27PM 43.0726 -70.7397 195° South 459 528 38,000  Level FlightAware ADS-B (KBOS)
12:28PM 43.0246 -70.7565 194° South 450 518 38,000  Level FlightAware ADS-B
12:28PM 43.0028 -70.7642 194° South 450 518 38,000  Level FlightAware ADS-B
12:28PM 42.9430 -70.7852 194° South 457 526 38,000  Level FlightAware ADS-B (KBOS)
12:29PM 42.8809 -70.8070 194° South 455 524 38,000  Level FlightAware ADS-B (KBOS)
12:29PM 42.8609 -70.8140 194° South 447 514 38,000  Level FlightAware ADS-B
12:29PM 42.8431 -70.8202 194° South 447 514 38,000  Level FlightAware ADS-B
12:30PM 42.7397 -70.8578 195° South 450 518 38,000  Level FlightAware ADS-B (KBOS)
12:30PM 42.7198 -70.8702 205° Southwest 444 511 38,000  Level FlightAware ADS-B
12:30PM 42.6905 -70.8976 215° Southwest 432 497 38,000  Level FlightAware ADS-B (KBOS)
12:31PM 42.6403 -70.9524 219° Southwest 436 502 38,000  Level FlightAware ADS-B (KBOS)
12:31PM 42.6117 -70.9832 218° Southwest 437 503 38,000  Level FlightAware ADS-B
12:31PM 42.5934 -71.0028 218° Southwest 432 497 38,000  Level FlightAware ADS-B
12:32PM 42.5642 -71.0341 218° Southwest 439 505 38,000  Level FlightAware ADS-B (KBOS)
12:32PM 42.5449 -71.0548 218° Southwest 433 498 38,000  Level FlightAware ADS-B
12:32PM 42.5168 -71.0850 218° Southwest 433 498 38,000  Level FlightAware ADS-B
12:32PM 42.4991 -71.1039 218° Southwest 433 498 38,000  Level FlightAware ADS-B
12:33PM 42.4849 -71.1191 218° Southwest 432 497 38,000  Level FlightAware ADS-B
12:33PM 42.4662 -71.1390 218° Southwest 439 505 38,000  Level FlightAware ADS-B (SBBR / BSB)
12:33PM 42.4500 -71.1564 218° Southwest 432 497 38,000  Level FlightAware ADS-B
12:33PM 42.4184 -71.1900 218° Southwest 431 496 38,000  Level FlightAware ADS-B
12:34PM 42.3870 -71.2234 218° Southwest 430 495 38,000  Level FlightAware ADS-B
12:34PM 42.3527 -71.2599 218° Southwest 434 499 38,000  Level FlightAware ADS-B (SBBR / BSB)
12:35PM 42.2941 -71.3223 218° Southwest 431 496 38,000  Level FlightAware ADS-B (KBOS)
12:35PM 42.2462 -71.3728 218° Southwest 430 495 38,000  Level FlightAware ADS-B
12:36PM 42.1980 -71.4237 218° Southwest 429 494 38,000  Level FlightAware ADS-B
12:36PM 42.1520 -71.4724 218° Southwest 431 496 38,000  Level FlightAware ADS-B (KBOS)
12:37PM 42.1045 -71.5224 218° Southwest 432 497 38,000  Level FlightAware ADS-B
12:37PM 42.0589 -71.5703 218° Southwest 432 497 38,000  Level FlightAware ADS-B (KBOS)
12:38PM 42.0099 -71.6218 218° Southwest 433 498 38,000  Level FlightAware ADS-B
12:38PM 41.9591 -71.6750 218° Southwest 434 499 38,000  Level FlightAware ADS-B (SBBR / BSB)
12:39PM 41.9148 -71.7213 218° Southwest 428 493 38,000  Level FlightAware ADS-B
12:39PM 41.8986 -71.7382 218° Southwest 435 501 38,000  Level FlightAware ADS-B (KOWD)
12:39PM 41.8593 -71.7792 218° Southwest 430 495 38,000  Level FlightAware ADS-B
12:39PM 41.8522 -71.7866 218° Southwest 436 502 38,000  Level FlightAware ADS-B (KOWD)
12:40PM 41.7959 -71.8452 218° Southwest 436 502 38,000  Level FlightAware ADS-B (KSNC)
12:40PM 41.7470 -71.8958 218° Southwest 436 502 38,000  Level FlightAware ADS-B (KSNC)
12:41PM 41.6974 -71.9473 218° Southwest 437 503 38,000  Level FlightAware ADS-B (SBBR / BSB)
12:41PM 41.6518 -71.9944 218° Southwest 438 504 38,000  Level FlightAware ADS-B (KSNC)
12:42PM 41.5958 -72.0522 218° Southwest 438 504 38,000  Level FlightAware ADS-B (SBBR / BSB)
12:43PM 41.5443 -72.1053 218° Southwest 437 503 38,000  Level FlightAware ADS-B (KOWD)
12:43PM 41.5005 -72.1503 218° Southwest 439 505 38,000  Level FlightAware ADS-B (SBBR / BSB)
12:44PM 41.4472 -72.2051 218° Southwest 442 509 38,000  Level FlightAware ADS-B (KOWD)
12:44PM 41.3964 -72.2570 217° Southwest 441 507 38,000  Level FlightAware ADS-B (SBBR / BSB)
12:45PM 41.3325 -72.3222 217° Southwest 443 510 38,000  Level FlightAware ADS-B (KSNC)
12:45PM 41.2815 -72.3741 217° Southwest 444 511 38,000  Level FlightAware ADS-B (SBBR / BSB)
12:46PM 41.2154 -72.4412 217° Southwest 444 511 38,000  Level FlightAware ADS-B (KSNC)
12:46PM 41.1646 -72.4926 217° Southwest 438 504 38,000  Level FlightAware ADS-B (KSNC)
12:47PM 41.1087 -72.5491 217° Southwest 432 497 38,000  Level FlightAware ADS-B (SBBR / BSB)
12:48PM 41.0615 -72.5970 217° Southwest 431 496 38,000  Level FlightAware ADS-B (SBBR / BSB)
12:48PM 41.0102 -72.6488 217° Southwest 432 497 38,000  Level FlightAware ADS-B (SBBR / BSB)
12:49PM 40.9603 -72.6990 217° Southwest 434 499 38,000  Level FlightAware ADS-B (KSNC)
12:49PM 40.9112 -72.7483 217° Southwest 435 501 38,000  Level FlightAware ADS-B (KSNC)
12:50PM 40.8538 -72.8058 217° Southwest 434 499 38,000  Level FlightAware ADS-B (KSNC)
12:50PM 40.7874 -72.8720 217° Southwest 430 495 38,000  Level FlightAware ADS-B (KSNC)
12:51PM 40.7275 -72.9318 217° Southwest 429 494 38,000  Level FlightAware ADS-B (KSNC)
12:52PM 40.6713 -72.9877 217° Southwest 429 494 38,000  Level FlightAware ADS-B (KSNC)
12:52PM 40.6133 -73.0452 217° Southwest 428 493 38,000  Level FlightAware ADS-B (KSNC)
12:53PM 40.5471 -73.1109 217° Southwest 427 491 38,000  Level FlightAware ADS-B (KSNC)
12:54PM 40.4826 -73.1746 217° Southwest 424 488 38,000  Level FlightAware ADS-B (KSNC)
12:54PM 40.4197 -73.2365 217° Southwest 421 484 38,000  Level FlightAware ADS-B (KSNC)
12:55PM 40.3650 -73.2902 217° Southwest 419 482 38,000  Level FlightAware ADS-B (KSNC)
12:55PM 40.3128 -73.3415 217° Southwest 419 482 38,000  Level FlightAware ADS-B (KWWD)
12:56PM 40.2562 -73.3970 217° Southwest 420 483 38,000  Level FlightAware ADS-B (KSNC)
12:57PM 40.2089 -73.4432 217° Southwest 422 486 38,000  Level FlightAware ADS-B (KSNC)
12:57PM 40.1559 -73.4950 217° Southwest 424 488 38,000  Level FlightAware ADS-B (KWWD)
12:58PM 40.1062 -73.5434 217° Southwest 422 486 38,000  Level FlightAware ADS-B (KWWD)
12:58PM 40.0555 -73.5925 217° Southwest 420 483 38,000  Level FlightAware ADS-B (KSNC)
12:59PM 40.0040 -73.6425 217° Southwest 420 483 38,000  Level FlightAware ADS-B (KSNC)
12:59PM 39.9516 -73.6931 217° Southwest 420 483 38,000  Level FlightAware ADS-B (KWWD)
01:00PM 39.9108 -73.7310 215° Southwest 431 496 38,000  Level FlightAware ADS-B (KSNC)
01:00PM 39.8836 -73.7469 204° Southwest 445 512 38,000  Level FlightAware ADS-B (KWWD)
01:00PM 39.8211 -73.7710 197° South 451 519 38,000  Level FlightAware ADS-B (KWWD)
01:01PM 39.7419 -73.8008 196° South 452 520 38,000  Level FlightAware ADS-B (KWWD)
01:02PM 39.6628 -73.8308 196° South 452 520 38,000  Level FlightAware ADS-B (KWWD)
01:02PM 39.5999 -73.8548 196° South 452 520 38,000  Level FlightAware ADS-B (KWWD)
01:03PM 39.5221 -73.8839 196° South 454 522 38,000  Level FlightAware ADS-B (KWWD)
01:03PM 39.4577 -73.9115 198° South 441 507 38,000  Level FlightAware ADS-B (KWWD)
01:04PM 39.3905 -73.9640 211° Southwest 431 496 38,000  Level FlightAware ADS-B (KWWD)
01:05PM 39.3401 -74.0030 211° Southwest 433 498 38,000  Level FlightAware ADS-B (KWWD)
01:05PM 39.2723 -74.0556 211° Southwest 434 499 38,000  Level FlightAware ADS-B (KWWD)
01:06PM 39.2187 -74.0972 211° Southwest 434 499 38,000  Level FlightAware ADS-B (KWWD)
01:06PM 39.1664 -74.1379 211° Southwest 433 498 38,000  Level FlightAware ADS-B (KWWD)
01:07PM 39.0992 -74.1896 211° Southwest 433 498 38,000  Level FlightAware ADS-B (KWWD)
01:07PM 39.0477 -74.2294 211° Southwest 432 497 38,000  Level FlightAware ADS-B (KWWD)
01:08PM 38.9987 -74.2673 211° Southwest 433 498 38,000  Level FlightAware ADS-B (KWWD)
01:08PM 38.9454 -74.3084 211° Southwest 433 498 38,000  Level FlightAware ADS-B (KWWD)
01:09PM 38.8934 -74.3484 211° Southwest 434 499 38,000  Level FlightAware ADS-B (KWWD)
01:09PM 38.8412 -74.3884 211° Southwest 434 499 38,000  Level FlightAware ADS-B (KWWD)
01:10PM 38.7883 -74.4290 211° Southwest 435 501 38,000  Level FlightAware ADS-B (KWWD)
01:10PM 38.7374 -74.4678 211° Southwest 435 501 38,000  Level FlightAware ADS-B (KWWD)
01:11PM 38.6837 -74.5087 211° Southwest 435 501 38,000  Level FlightAware ADS-B (KWWD)
01:12PM 38.6153 -74.5608 211° Southwest 434 499 38,000  Level FlightAware ADS-B (KWWD)
01:12PM 38.5631 -74.6004 211° Southwest 433 498 38,000  Level FlightAware ADS-B (KWWD)
01:13PM 38.5179 -74.6348 211° Southwest 433 498 38,000  Level FlightAware ADS-B (KSBY)
01:13PM 38.4439 -74.6908 211° Southwest 432 497 38,000  Level FlightAware ADS-B (KSBY)
01:14PM 38.3771 -74.7413 211° Southwest 432 497 38,000  Level FlightAware ADS-B (KWWD)
01:14PM 38.3254 -74.7801 210° Southwest 431 496 38,000  Level FlightAware ADS-B (KWWD)
01:15PM 38.2734 -74.8193 211° Southwest 432 497 38,000  Level FlightAware ADS-B (KWWD)
01:15PM 38.2199 -74.8597 211° Southwest 433 498 38,000  Level FlightAware ADS-B (KWWD)
01:16PM 38.1578 -74.9062 211° Southwest 433 498 38,000  Level FlightAware ADS-B (KSBY)
01:17PM 38.0998 -74.9497 211° Southwest 432 497 38,000  Level FlightAware ADS-B (KWWD)
01:17PM 38.0491 -74.9875 210° Southwest 431 496 38,000  Level FlightAware ADS-B (KWWD)
01:17PM 38.0228 -75.0072 210° Southwest 429 494 38,000  Level FlightAware ADS-B (KSBY)
01:18PM 37.9622 -75.0523 210° Southwest 427 491 38,000  Level FlightAware ADS-B (KWWD)
01:19PM 37.8982 -75.0999 210° Southwest 417 480 38,000  Level FlightAware ADS-B (KWWD)
01:19PM 37.8269 -75.1528 210° Southwest 413 475 38,000  Level FlightAware ADS-B (KWWD)
01:20PM 37.7808 -75.1870 210° Southwest 419 482 38,000  Level FlightAware ADS-B (KSBY)
01:20PM 37.7252 -75.2283 210° Southwest 414 476 38,000  Level FlightAware ADS-B (KWWD)
01:21PM 37.6749 -75.2655 210° Southwest 416 479 38,000  Level FlightAware ADS-B (KWWD)
01:21PM 37.6493 -75.2843 210° Southwest 423 487 38,000  Level FlightAware ADS-B (KSBY)
01:22PM 37.5934 -75.3254 210° Southwest 416 479 38,000  Level FlightAware ADS-B (KWWD)
01:22PM 37.5397 -75.3648 210° Southwest 416 479 38,000  Level FlightAware ADS-B (KWWD)
01:23PM 37.4745 -75.4127 210° Southwest 417 480 38,000  Level FlightAware ADS-B (KWWD)
01:23PM 37.4256 -75.4485 210° Southwest 417 480 38,000  Level FlightAware ADS-B (KWWD)
01:24PM 37.3705 -75.4890 210° Southwest 425 489 38,000  Level FlightAware ADS-B (KWWD)
01:24PM 37.3183 -75.5272 210° Southwest 426 490 38,000  Level FlightAware ADS-B (KWWD)
01:25PM 37.2629 -75.5674 210° Southwest 426 490 38,000  Level FlightAware ADS-B (KSBY)
01:25PM 37.2028 -75.6113 210° Southwest 426 490 38,000  Level FlightAware ADS-B (KWWD)
01:26PM 37.1497 -75.6500 210° Southwest 427 491 38,000  Level FlightAware ADS-B (KWWD)
01:27PM 37.0991 -75.6865 210° Southwest 428 493 38,000  Level FlightAware ADS-B (KWWD)
01:27PM 37.0311 -75.7356 210° Southwest 429 494 38,000  Level FlightAware ADS-B (KWWD)
01:28PM 36.9769 -75.7750 210° Southwest 431 496 38,000  Level FlightAware ADS-B (KWWD)
01:28PM 36.9099 -75.8232 210° Southwest 432 497 38,000  Level FlightAware ADS-B (KWWD)
01:29PM 36.8413 -75.8726 210° Southwest 432 497 38,000  Level FlightAware ADS-B (KWWD)
01:30PM 36.7882 -75.9106 210° Southwest 431 496 38,000  Level FlightAware ADS-B (KWWD)
01:30PM 36.7341 -75.9495 210° Southwest 431 496 38,000  Level FlightAware ADS-B (KWWD)
01:31PM 36.6770 -75.9910 210° Southwest 429 494 38,000  Level FlightAware
01:31PM 36.6304 -76.0237 209° Southwest 428 493 38,000  Level FlightAware ADS-B (KWWD)
01:32PM 36.5505 -76.0808 210° Southwest 428 493 38,000  Level FlightAware ADS-B (KWWD)
01:32PM 36.4968 -76.1190 210° Southwest 429 494 38,000  Level FlightAware ADS-B (KWWD)
01:33PM 36.4285 -76.1676 210° Southwest 430 495 38,000  Level FlightAware ADS-B (KWWD)
01:34PM 36.3631 -76.2139 210° Southwest 429 494 38,000  Level FlightAware ADS-B (KWWD)
01:34PM 36.2967 -76.2603 209° Southwest 429 494 38,000  Level FlightAware ADS-B (KWWD)
01:35PM 36.2030 -76.3100 203° Southwest 439 505 38,000  Level FlightAware
01:36PM 36.0900 -76.3560 198° South 447 514 38,000  Level FlightAware
01:37PM 35.9800 -76.4060 200° South 446 513 38,000  Level FlightAware
01:38PM 35.9210 -76.4330 200° South 446 513 38,000  Level FlightAware
01:38PM 35.8610 -76.4590 199° South 446 513 38,000  Level FlightAware
01:39PM 35.8200 -76.4780 201° Southwest 446 513 38,000  Level FlightAware
01:40PM 35.7000 -76.5320 200° South 446 513 38,000  Level FlightAware
01:41PM 35.5540 -76.6010 201° Southwest 454 522 38,000  Level FlightAware
01:42PM 35.4420 -76.6520 200° South 458 527 38,000  Level FlightAware
01:43PM 35.3040 -76.7140 200° South 457 526 38,000  Level FlightAware
01:43PM 35.2680 -76.7290 199° South 456 525 38,000  Level FlightAware
01:44PM 35.1930 -76.7630 200° South 456 525 38,000  Level FlightAware
01:45PM 35.1250 -76.7940 200° South 454 522 38,000  Level FlightAware
01:45PM 35.0480 -76.8280 200° South 453 521 38,000  Level FlightAware
01:46PM 34.9860 -76.8560 200° South 453 521 38,000  Level FlightAware
01:46PM 34.9140 -76.8880 200° South 454 522 38,000  Level FlightAware
01:47PM 34.8020 -76.9380 200° South 455 524 38,000  Level FlightAware
01:48PM 34.7270 -76.9710 200° South 456 525 38,000  Level FlightAware
01:49PM 34.6470 -77.0070 200° South 457 526 38,000  Level FlightAware
01:49PM 34.5600 -77.0450 200° South 457 526 38,000  Level FlightAware
01:50PM 34.4830 -77.0790 200° South 456 525 38,000  Level FlightAware
01:51PM 34.3920 -77.1190 200° South 455 524 38,000  Level FlightAware
01:52PM 34.2940 -77.1620 200° South 456 525 38,000  Level FlightAware
01:53PM 34.2130 -77.1980 200° South 457 526 38,000  Level FlightAware
01:53PM 34.1170 -77.2400 200° South 459 528 38,000  Level FlightAware
01:54PM 34.0460 -77.2700 199° South 462 532 38,000  Level FlightAware
01:54PM 33.9860 -77.2960 200° South 462 532 38,000  Level FlightAware
01:55PM 33.9360 -77.3180 200° South 460 529 38,000  Level FlightAware
01:56PM 33.8320 -77.3630 200° South 458 527 38,000  Level FlightAware
01:56PM 33.7720 -77.3890 200° South 458 527 38,000  Level FlightAware
01:57PM 33.6480 -77.4420 200° South 458 527 38,000  Level FlightAware
01:58PM 33.6020 -77.4620 200° South 458 527 38,000  Level FlightAware
01:58PM 33.5400 -77.4890 200° South 458 527 38,000  Level FlightAware
01:59PM 33.4120 -77.5440 200° South 457 526 38,000  Level FlightAware
02:00PM 33.3470 -77.5720 200° South 457 526 38,000  Level FlightAware
02:01PM 33.2380 -77.6190 200° South 457 526 38,000  Level FlightAware
02:02PM 33.1580 -77.6530 200° South 457 526 38,000  Level FlightAware
02:03PM 33.0570 -77.6970 200° South 457 526 38,000  Level FlightAware
02:03PM 32.9960 -77.7240 200° South 457 526 38,000  Level FlightAware
02:04PM 32.8970 -77.7670 200° South 457 526 38,000  Level FlightAware
02:05PM 32.8360 -77.7930 200° South 457 526 38,000  Level FlightAware
02:05PM 32.7940 -77.8120 201° Southwest 457 526 38,000  Level FlightAware
02:06PM 32.5053 -77.9269 201° Southwest 463 533 38,000  Level Jacksonville Center
02:07PM 32.3861 -77.9750 199° South 463 533 38,000  Level Jacksonville Center
02:08PM 32.2631 -78.0261 199° South 463 533 38,000  Level Jacksonville Center
02:09PM 32.1400 -78.0817 201° Southwest 463 533 38,000  Level Jacksonville Center
02:10PM 32.0206 -78.1269 198° South 463 533 38,000  Level Jacksonville Center
02:11PM 31.8992 -78.1725 198° South 463 533 38,000  Level Jacksonville Center
02:12PM 31.7739 -78.2278 201° Southwest 463 533 38,000  Level Jacksonville Center
02:13PM 31.6547 -78.2850 202° Southwest 463 533 38,000  Level Jacksonville Center
02:14PM 31.5314 -78.3325 198° South 469 540 38,000  Level Jacksonville Center
02:15PM 31.4058 -78.3872 200° South 469 540 38,000  Level Jacksonville Center
02:16PM 31.2822 -78.4347 198° South 469 540 38,000  Level Jacksonville Center
02:17PM 31.1631 -78.4814 199° South 469 540 38,000  Level Jacksonville Center
02:18PM 31.0394 -78.5333 200° South 469 540 38,000  Level Jacksonville Center
02:20PM 30.7756 -78.6414 199° South 469 540 38,000  Level Miami Center
02:21PM 30.6542 -78.6875 198° South 475 547 38,000  Level Miami Center
02:22PM 30.5267 -78.7167 191° South 475 547 38,000  Level Miami Center
02:23PM 30.3972 -78.7456 191° South 475 547 38,000  Level Miami Center
02:24PM 30.2592 -78.7719 189° South 482 555 38,000  Level Miami Center
02:25PM 30.1464 -78.7964 191° South 482 555 38,000  Level Miami Center
02:26PM 30.0167 -78.8228 190° South 482 555 38,000  Level Miami Center
02:27PM 29.8869 -78.8539 192° South 482 555 38,000  Level Miami Center
02:28PM 29.7450 -78.8681 185° South 489 563 38,000  Level Miami Center
02:29PM 29.6236 -78.9039 194° South 481 554 38,000  Level Miami Center
02:30PM 29.4939 -78.9325 191° South 481 554 38,000 -240 Level Miami Center
02:35PM 28.8220 -79.0660 191° South 471 542 36,600 -420 Descending FlightAware
02:36PM 28.6990 -79.0910 190° South 459 528 35,700 -1,020 Descending FlightAware
02:37PM 28.5930 -79.1120 190° South 473 544 34,900 -1,080 Descending FlightAware
02:38PM 28.5260 -79.1260 190° South 476 548 34,400 -1,020 Descending FlightAware
02:39PM 28.3830 -79.1550 190° South 482 555 33,300 -1,020 Descending FlightAware
02:40PM 28.2480 -79.1820 190° South 473 544 32,300 -1,020 Descending FlightAware
02:41PM 28.1340 -79.2050 190° South 456 525 31,400 -780 Descending FlightAware
02:42PM 28.0080 -79.2290 190° South 460 529 30,800 -1,080 Descending FlightAware
02:42PM 27.9510 -79.2410 191° South 451 519 29,900 -1,380 Descending FlightAware
02:43PM 27.8270 -79.2660 190° South 442 509 28,900 -1,020 Descending FlightAware
02:44PM 27.7040 -79.2900 190° South 441 507 27,900 -1,020 Descending FlightAware
02:45PM 27.6060 -79.3090 190° South 420 483 27,100 -1,020 Descending FlightAware
02:46PM 27.4910 -79.3320 190° South 412 474 26,100 -1,020 Descending FlightAware
02:47PM 27.3807 -79.3537 190° South 402 463 25,100 -1,080 Descending FlightAware ADS-B (KMCO)
02:48PM 27.2900 -79.3720 190° South 392 451 24,200 -660 Descending FlightAware
02:49PM 27.1900 -79.3940 191° South 383 441 24,000 -180 Descending FlightAware
02:49PM 27.1416 -79.4210 206° Southwest 383 441 24,000  Level FlightAware ADS-B (KMCO)
02:50PM 27.0850 -79.4580 210° Southwest 385 443 24,000  Level FlightAware
02:50PM 27.0841 -79.4585 208° Southwest 384 442 24,000 -120 Level FlightAware ADS-B (KMCO)
02:51PM 26.9824 -79.5204 208° Southwest 386 444 23,900 -540 Descending FlightAware ADS-B (KMCO)
02:52PM 26.8916 -79.5748 208° Southwest 380 437 23,000 -540 Descending FlightAware ADS-B (KMCO)
02:53PM 26.8110 -79.6230 208° Southwest 381 438 23,000 -1,200 Level FlightAware
02:54PM 26.7110 -79.6820 208° Southwest 385 443 20,800 -2,160 Descending FlightAware
02:54PM 26.6570 -79.7140 208° Southwest 386 444 19,600 -2,100 Descending FlightAware
02:55PM 26.6080 -79.7440 209° Southwest 381 438 18,600 -1,800 Descending FlightAware
02:55PM 26.5610 -79.7720 208° Southwest 374 430 17,800 -1,440 Descending FlightAware
02:56PM 26.5130 -79.8000 208° Southwest 367 422 17,100 -1,200 Descending FlightAware
02:57PM 26.4320 -79.8480 208° Southwest 365 420 16,100 -1,380 Descending FlightAware
02:58PM 26.3500 -79.9120 215° Southwest 349 402 14,500 -1,560 Descending FlightAware
02:58PM 26.3230 -79.9360 219° Southwest 346 398 14,000 -1,440 Descending FlightAware
02:59PM 26.2660 -79.9610 201° Southwest 339 390 13,100 -1,440 Descending FlightAware
03:00PM 26.1900 -79.9950 202° Southwest 331 381 11,900 -1,440 Descending FlightAware
03:01PM 26.1280 -80.0220 201° Southwest 322 371 10,800 -1,440 Descending FlightAware
03:01PM 26.0710 -80.0480 202° Southwest 316 364 9,800 -1,380 Descending FlightAware
03:02PM 26.0280 -80.0670 202° Southwest 309 356 9,100 -1,320 Descending FlightAware
03:02PM 25.9850 -80.0860 202° Southwest 307 353 8,500 -900 Descending FlightAware
03:03PM 25.9580 -80.1040 211° Southwest 298 343 8,300 -480 Descending FlightAware
03:03PM 25.9470 -80.1480 254° West 290 334 8,100 -780 Descending FlightAware
03:04PM 25.9450 -80.1860 267° West 291 335 7,600 -1,140 Descending FlightAware
03:04PM 25.9430 -80.2380 268° West 288 331 7,000 -960 Descending FlightAware
03:05PM 25.9420 -80.2820 269° West 274 315 6,600 -780 Descending FlightAware
03:05PM 25.9400 -80.3140 266° West 251 289 6,300 -660 Descending FlightAware
03:06PM 25.9390 -80.3460 268° West 232 267 6,100 -660 Descending FlightAware
03:06PM 25.9380 -80.3780 268° West 221 254 5,700 -1,320 Descending FlightAware
03:06PM 25.9370 -80.4110 268° West 224 258 4,900 -1,800 Descending FlightAware
03:07PM 25.9360 -80.4340 267° West 229 264 4,300 -1,380 Descending FlightAware
03:07PM 25.9340 -80.4640 266° West 228 262 3,900 -480 Descending FlightAware
03:08PM 25.9320 -80.4950 266° West 221 254 3,900  Level FlightAware
03:08PM 25.9290 -80.5390 266° West 215 247 3,900  Level FlightAware
03:09PM 25.9170 -80.5610 239° Southwest 203 234 3,900  Level FlightAware
03:09PM 25.9070 -80.5640 195° South 194 223 3,900 -240 Level FlightAware
03:10PM 25.8880 -80.5400 131° Southeast 177 204 3,700 -600 Descending FlightAware
03:10PM 25.8920 -80.4970 84° East 171 197 3,100 -840 Descending FlightAware
03:10PM 25.8920 -80.4950 90° East 171 197 3,000 -240 Descending FlightAware
03:11PM 25.8770 -80.4560 113° Southeast 170 196 2,900 -480 Descending FlightAware
03:12PM 25.8650 -80.4300 117° Southeast 172 198 2,400 -960 Descending FlightAware
03:12PM 25.8530 -80.4060 119° Southeast 167 192 1,900 -840 Descending FlightAware
03:13PM 25.8400 -80.3820 121° Southeast 153 176 1,500 -840 Descending FlightAware
03:13PM 25.8340 -80.3700 119° Southeast 137 158 1,200 -660 Descending FlightAware
03:14PM 25.8230 -80.3490 120° Southeast 133 153 900 -660 Descending FlightAware
03:14PM 25.8150 -80.3330 119° Southeast 124 143 500 -780 Descending FlightAware
03:15PM 25.8070 -80.3160 118° Southeast 132 152 200 -660 Descending FlightAware
03:15PM 25.8000 -80.3030 121° Southeast 127 146 -540 Descending FlightAware